createdAt,value
2023-04-24T00:00:06.887Z,14.16
2023-04-24T00:02:35.149Z,14.40
2023-04-24T00:05:03.254Z,14.24
2023-04-24T00:07:31.122Z,14.58
2023-04-24T00:09:58.705Z,13.94
2023-04-24T00:12:27.710Z,13.48
2023-04-24T00:14:55.914Z,13.74
2023-04-24T00:17:23.027Z,13.61
2023-04-24T00:19:59.184Z,13.52
2023-04-24T00:22:27.502Z,13.91
2023-04-24T00:24:55.459Z,14.09
2023-04-24T00:27:22.490Z,13.93
2023-04-24T00:29:50.310Z,13.73
2023-04-24T00:32:19.993Z,13.81
2023-04-24T00:34:47.146Z,13.59
2023-04-24T00:37:14.162Z,13.46
2023-04-24T00:39:44.569Z,13.59
2023-04-24T00:42:14.511Z,13.84
2023-04-24T00:44:50.736Z,13.34
2023-04-24T00:47:22.510Z,13.18
2023-04-24T00:49:49.629Z,13.27
2023-04-24T00:52:18.617Z,13.23
2023-04-24T00:54:46.391Z,13.17
2023-04-24T00:57:16.264Z,13.56
2023-04-24T00:59:49.225Z,13.31
2023-04-24T01:02:16.685Z,13.23
2023-04-24T01:04:44.478Z,13.37
2023-04-24T01:07:12.414Z,13.54
2023-04-24T01:09:43.289Z,13.16
2023-04-24T01:12:11.176Z,13.21
2023-04-24T01:14:39.370Z,13.33
2023-04-24T01:17:06.824Z,13.44
2023-04-24T01:19:33.966Z,13.50
2023-04-24T01:22:04.915Z,13.72
2023-04-24T01:24:32.380Z,13.39
2023-04-24T01:26:59.645Z,14.04
2023-04-24T01:29:26.959Z,14.49
2023-04-24T01:31:59.570Z,14.61
2023-04-24T01:34:27.665Z,14.62
2023-04-24T01:36:57.823Z,14.99
2023-04-24T01:39:26.585Z,14.96
2023-04-24T01:41:54.613Z,14.93
2023-04-24T01:44:22.810Z,14.15
2023-04-24T01:46:50.277Z,13.29
2023-04-24T01:49:17.618Z,12.75
2023-04-24T01:51:44.764Z,13.25
2023-04-24T01:54:11.983Z,12.66
2023-04-24T01:56:44.759Z,13.08
2023-04-24T01:59:12.924Z,13.51
2023-04-24T02:01:40.668Z,13.11
2023-04-24T02:04:09.055Z,13.78
2023-04-24T02:06:36.609Z,13.37
2023-04-24T02:09:06.583Z,13.98
2023-04-24T02:11:35.717Z,13.19
2023-04-24T02:14:02.751Z,13.38
2023-04-24T02:16:34.110Z,13.29
2023-04-24T02:19:01.319Z,13.79
2023-04-24T02:21:28.910Z,14.51
2023-04-24T02:23:56.442Z,14.53
2023-04-24T02:26:23.750Z,14.83
2023-04-24T02:28:50.876Z,13.04
2023-04-24T02:31:17.938Z,12.99
2023-04-24T02:33:44.991Z,13.04
2023-04-24T02:36:12.092Z,13.32
2023-04-24T02:38:39.179Z,13.53
2023-04-24T02:41:07.310Z,14.18
2023-04-24T02:43:34.700Z,14.42
2023-04-24T02:46:01.917Z,14.66
2023-04-24T02:48:29.066Z,14.77
2023-04-24T02:50:56.218Z,13.96
2023-04-24T02:53:24.301Z,13.24
2023-04-24T02:55:51.406Z,14.36
2023-04-24T02:58:20.934Z,14.16
2023-04-24T03:00:48.466Z,13.97
2023-04-24T03:03:16.282Z,13.49
2023-04-24T03:05:43.552Z,14.17
2023-04-24T03:08:11.399Z,13.88
2023-04-24T03:10:38.552Z,13.71
2023-04-24T03:13:11.189Z,13.77
2023-04-24T03:15:38.271Z,13.34
2023-04-24T03:18:05.543Z,13.23
2023-04-24T03:20:32.939Z,13.19
2023-04-24T03:23:00.026Z,14.04
2023-04-24T03:25:27.089Z,14.27
2023-04-24T03:27:55.683Z,14.16
2023-04-24T03:30:22.854Z,14.39
2023-04-24T03:32:49.933Z,14.43
2023-04-24T03:35:17.074Z,14.19
2023-04-24T03:37:44.126Z,14.65
2023-04-24T03:40:11.427Z,14.45
2023-04-24T03:42:39.442Z,14.32
2023-04-24T03:45:08.134Z,14.03
2023-04-24T03:47:35.192Z,14.14
2023-04-24T03:50:03.048Z,13.70
2023-04-24T03:52:30.175Z,14.36
2023-04-24T03:54:57.231Z,14.02
2023-04-24T03:57:24.443Z,14.43
2023-04-24T03:59:52.417Z,14.14
2023-04-24T04:02:19.575Z,14.59
2023-04-24T04:04:46.919Z,14.34
2023-04-24T04:07:14.668Z,14.53
2023-04-24T04:09:42.062Z,14.55
2023-04-24T04:12:09.331Z,14.50
2023-04-24T04:14:36.388Z,14.45
2023-04-24T04:17:03.507Z,14.35
2023-04-24T04:19:30.667Z,14.33
2023-04-24T04:21:58.375Z,14.03
2023-04-24T04:24:25.562Z,14.35
2023-04-24T04:26:53.135Z,14.27
2023-04-24T04:29:20.436Z,13.37
2023-04-24T04:31:47.541Z,14.17
2023-04-24T04:34:15.187Z,14.70
2023-04-24T04:36:51.970Z,14.94
2023-04-24T04:39:19.594Z,14.38
2023-04-24T04:41:49.949Z,14.79
2023-04-24T04:44:17.341Z,14.74
2023-04-24T04:46:45.150Z,14.33
2023-04-24T04:49:12.522Z,14.72
2023-04-24T04:51:41.227Z,14.54
2023-04-24T04:54:09.969Z,15.05
2023-04-24T04:56:37.132Z,15.26
2023-04-24T04:59:12.751Z,15.66
2023-04-24T05:01:45.852Z,15.45
2023-04-24T05:04:13.059Z,15.45
2023-04-24T05:06:40.407Z,15.29
2023-04-24T05:09:08.440Z,15.52
2023-04-24T05:11:38.431Z,15.50
2023-04-24T05:14:05.597Z,15.31
2023-04-24T05:16:35.131Z,15.28
2023-04-24T05:19:02.391Z,15.68
2023-04-24T05:21:30.702Z,15.74
2023-04-24T05:23:57.897Z,16.22
2023-04-24T05:26:25.616Z,16.08
2023-04-24T05:28:52.645Z,16.45
2023-04-24T05:31:19.786Z,16.61
2023-04-24T05:33:46.917Z,16.37
2023-04-24T05:36:14.207Z,16.83
2023-04-24T05:38:41.474Z,17.36
2023-04-24T05:41:08.636Z,17.13
2023-04-24T05:43:35.816Z,17.62
2023-04-24T05:46:02.986Z,17.73
2023-04-24T05:48:30.145Z,17.65
2023-04-24T05:51:00.608Z,17.65
2023-04-24T05:53:27.849Z,17.64
2023-04-24T05:55:54.952Z,17.77
2023-04-24T05:58:22.016Z,17.98
2023-04-24T06:00:51.447Z,18.23
2023-04-24T06:03:21.859Z,18.41
2023-04-24T06:05:51.289Z,18.21
2023-04-24T06:08:18.837Z,18.08
2023-04-24T06:10:46.434Z,18.58
2023-04-24T06:13:13.647Z,18.57
2023-04-24T06:15:44.340Z,18.61
2023-04-24T06:18:11.503Z,18.93
2023-04-24T06:20:38.861Z,18.89
2023-04-24T06:23:06.132Z,18.67
2023-04-24T06:25:33.511Z,18.73
2023-04-24T06:28:00.856Z,19.09
2023-04-24T06:30:30.360Z,18.81
2023-04-24T06:33:02.995Z,18.63
2023-04-24T06:35:38.974Z,18.94
2023-04-24T06:38:06.364Z,18.84
2023-04-24T06:40:34.897Z,19.05
2023-04-24T06:43:05.784Z,19.22
2023-04-24T06:45:35.477Z,18.99
2023-04-24T06:48:02.853Z,19.25
2023-04-24T06:50:29.914Z,19.74
2023-04-24T06:52:57.412Z,19.91
2023-04-24T06:55:24.953Z,19.23
2023-04-24T06:57:51.974Z,19.91
2023-04-24T07:00:19.659Z,19.54
2023-04-24T07:02:46.791Z,20.00
2023-04-24T07:05:14.043Z,19.36
2023-04-24T07:07:41.294Z,19.36
2023-04-24T07:10:09.687Z,19.29
2023-04-24T07:12:37.594Z,19.71
2023-04-24T07:15:06.894Z,19.65
2023-04-24T07:17:34.350Z,20.10
2023-04-24T07:20:01.764Z,20.15
2023-04-24T07:22:28.958Z,19.77
2023-04-24T07:24:56.185Z,20.08
2023-04-24T07:27:23.409Z,20.12
2023-04-24T07:29:50.464Z,19.85
2023-04-24T07:32:17.579Z,20.07
2023-04-24T07:34:44.768Z,19.89
2023-04-24T07:37:12.067Z,20.84
2023-04-24T07:39:39.294Z,21.04
2023-04-24T07:42:06.484Z,21.05
2023-04-24T07:44:33.641Z,21.49
2023-04-24T07:47:00.869Z,21.00
2023-04-24T07:49:28.820Z,20.95
2023-04-24T07:51:56.019Z,21.09
2023-04-24T07:54:23.129Z,21.62
2023-04-24T07:56:50.620Z,21.08
2023-04-24T07:59:17.754Z,20.12
2023-04-24T08:01:51.055Z,21.04
2023-04-24T08:04:19.064Z,21.72
2023-04-24T08:06:46.317Z,22.03
2023-04-24T08:09:14.130Z,22.15
2023-04-24T08:11:41.374Z,22.35
2023-04-24T08:14:08.484Z,22.60
2023-04-24T08:16:36.462Z,22.38
2023-04-24T08:19:03.745Z,21.77
2023-04-24T08:21:31.299Z,21.83
2023-04-24T08:23:58.448Z,22.19
2023-04-24T08:26:25.952Z,22.28
2023-04-24T08:28:54.443Z,22.60
2023-04-24T08:31:21.919Z,22.36
2023-04-24T08:33:49.116Z,22.15
2023-04-24T08:36:16.411Z,22.42
2023-04-24T08:38:44.083Z,22.56
2023-04-24T08:41:12.110Z,23.23
2023-04-24T08:43:41.669Z,23.57
2023-04-24T08:46:12.117Z,23.43
2023-04-24T08:48:41.097Z,23.52
2023-04-24T08:51:10.363Z,23.75
2023-04-24T08:53:41.035Z,23.43
2023-04-24T08:56:08.347Z,23.55
2023-04-24T08:58:36.740Z,23.87
2023-04-24T09:01:08.735Z,23.97
2023-04-24T09:03:37.096Z,24.50
2023-04-24T09:06:04.887Z,23.50
2023-04-24T09:08:33.729Z,24.17
2023-04-24T09:11:03.514Z,23.66
2023-04-24T09:13:31.632Z,24.01
2023-04-24T09:15:58.710Z,24.48
2023-04-24T09:18:27.404Z,24.33
2023-04-24T09:21:06.112Z,24.00
2023-04-24T09:23:34.137Z,24.67
2023-04-24T09:26:05.998Z,22.66
2023-04-24T09:28:39.960Z,24.10
2023-04-24T09:31:22.425Z,24.36
2023-04-24T09:34:05.732Z,24.19
2023-04-24T09:36:49.766Z,23.55
2023-04-24T09:39:21.193Z,23.35
2023-04-24T09:42:01.041Z,23.32
2023-04-24T09:44:29.508Z,23.30
2023-04-24T09:47:01.607Z,23.88
2023-04-24T09:49:34.233Z,23.14
2023-04-24T09:52:12.921Z,23.22
2023-04-24T09:54:43.394Z,23.17
2023-04-24T09:57:10.669Z,23.01
2023-04-24T09:59:46.830Z,22.85
2023-04-24T10:02:21.700Z,22.66
2023-04-24T10:05:00.646Z,23.19
2023-04-24T10:07:28.346Z,23.20
2023-04-24T10:09:56.616Z,22.25
2023-04-24T10:12:26.197Z,22.88
2023-04-24T10:14:54.176Z,23.46
2023-04-24T10:17:22.402Z,23.61
2023-04-24T10:19:50.142Z,23.43
2023-04-24T10:22:18.515Z,23.43
2023-04-24T10:24:46.259Z,23.88
2023-04-24T10:27:16.509Z,24.16
2023-04-24T10:29:46.556Z,24.14
2023-04-24T10:32:13.610Z,23.96
2023-04-24T10:34:41.472Z,23.83
2023-04-24T10:37:08.847Z,24.20
2023-04-24T10:39:38.321Z,24.48
2023-04-24T10:42:16.938Z,24.36
2023-04-24T10:44:44.278Z,24.83
2023-04-24T10:47:15.449Z,24.54
2023-04-24T10:49:46.402Z,24.20
2023-04-24T10:52:17.181Z,24.38
2023-04-24T10:54:51.255Z,24.71
2023-04-24T10:57:33.734Z,24.20
2023-04-24T11:00:22.967Z,24.17
2023-04-24T11:02:54.026Z,23.52
2023-04-24T11:05:53.181Z,23.54
2023-04-24T11:08:46.830Z,22.98
2023-04-24T11:11:19.118Z,23.46
2023-04-24T11:14:11.770Z,23.41
2023-04-24T11:16:53.429Z,23.53
2023-04-24T11:19:26.382Z,23.76
2023-04-24T11:22:14.943Z,23.90
2023-04-24T11:24:56.555Z,23.99
2023-04-24T11:27:25.338Z,24.99
2023-04-24T11:29:58.726Z,25.40
2023-04-24T11:32:45.612Z,24.62
2023-04-24T11:35:20.184Z,25.26
2023-04-24T11:38:07.959Z,26.22
2023-04-24T11:40:39.264Z,26.30
2023-04-24T11:43:08.392Z,25.31
2023-04-24T11:45:38.614Z,25.14
2023-04-24T11:48:05.765Z,25.14
2023-04-24T11:50:38.867Z,24.66
2023-04-24T11:53:05.910Z,24.34
2023-04-24T11:55:33.129Z,24.56
2023-04-24T11:58:04.314Z,23.32
2023-04-24T12:00:36.484Z,23.47
2023-04-24T12:03:13.286Z,22.16
2023-04-24T12:05:41.552Z,21.47
2023-04-24T12:08:11.600Z,21.53
2023-04-24T12:11:40.352Z,21.02
2023-04-24T12:14:56.352Z,20.67
2023-04-24T12:17:32.998Z,21.13
2023-04-24T12:20:09.722Z,22.67
2023-04-24T12:23:01.681Z,24.56
2023-04-24T12:25:35.822Z,25.34
2023-04-24T12:28:16.698Z,24.96
2023-04-24T12:30:54.963Z,24.61
2023-04-24T12:33:23.130Z,23.95
2023-04-24T12:35:54.905Z,25.26
2023-04-24T12:38:30.652Z,26.60
2023-04-24T12:41:10.555Z,25.10
2023-04-24T12:43:40.499Z,25.29
2023-04-24T12:46:08.043Z,25.27
2023-04-24T12:48:35.184Z,23.68
2023-04-24T12:51:02.705Z,23.50
2023-04-24T12:53:32.535Z,24.15
2023-04-24T12:55:59.613Z,24.58
2023-04-24T12:58:40.722Z,24.66
2023-04-24T13:01:07.818Z,24.77
2023-04-24T13:03:35.136Z,25.38
2023-04-24T13:06:02.806Z,26.88
2023-04-24T13:08:29.916Z,25.99
2023-04-24T13:10:59.646Z,25.58
2023-04-24T13:13:26.755Z,24.78
2023-04-24T13:15:53.881Z,24.72
2023-04-24T13:18:21.063Z,24.70
2023-04-24T13:20:51.041Z,24.12
2023-04-24T13:23:24.138Z,24.70
2023-04-24T13:25:51.223Z,25.16
2023-04-24T13:28:18.277Z,24.96
2023-04-24T13:30:45.836Z,26.52
2023-04-24T13:33:13.112Z,25.39
2023-04-24T13:35:40.316Z,24.97
2023-04-24T13:38:09.720Z,24.75
2023-04-24T13:40:36.825Z,24.03
2023-04-24T13:43:04.444Z,23.74
2023-04-24T13:45:31.540Z,24.59
2023-04-24T13:47:58.640Z,24.34
2023-04-24T13:50:26.621Z,25.75
2023-04-24T13:52:53.915Z,24.76
2023-04-24T13:55:21.423Z,24.90
2023-04-24T13:57:48.589Z,23.18
2023-04-24T14:00:18.919Z,23.72
2023-04-24T14:02:47.134Z,24.17
2023-04-24T14:05:16.167Z,24.18
2023-04-24T14:07:43.350Z,24.92
2023-04-24T14:10:11.281Z,24.96
2023-04-24T14:12:38.410Z,24.14
2023-04-24T14:15:07.081Z,23.96
2023-04-24T14:17:35.651Z,23.46
2023-04-24T14:20:04.586Z,23.50
2023-04-24T14:22:31.714Z,23.45
2023-04-24T14:24:58.986Z,23.56
2023-04-24T14:27:29.738Z,23.69
2023-04-24T14:29:56.940Z,23.61
2023-04-24T14:32:24.314Z,23.45
2023-04-24T14:34:51.620Z,23.18
2023-04-24T14:37:18.681Z,24.12
2023-04-24T14:39:56.135Z,24.41
2023-04-24T14:42:30.661Z,25.03
2023-04-24T14:44:57.723Z,25.06
2023-04-24T14:47:24.971Z,23.87
2023-04-24T14:49:52.259Z,24.07
2023-04-24T14:52:21.025Z,24.07
2023-04-24T14:54:48.149Z,25.02
2023-04-24T14:57:16.524Z,25.60
2023-04-24T14:59:43.936Z,25.67
2023-04-24T15:02:16.462Z,25.91
2023-04-24T15:04:44.868Z,26.49
2023-04-24T15:07:12.126Z,25.90
2023-04-24T15:09:39.340Z,24.96
2023-04-24T15:12:06.563Z,24.51
2023-04-24T15:14:36.118Z,23.73
2023-04-24T15:17:03.742Z,23.40
2023-04-24T15:19:32.828Z,23.27
2023-04-24T15:22:00.108Z,23.21
2023-04-24T15:24:27.672Z,23.06
2023-04-24T15:26:57.456Z,22.92
2023-04-24T15:29:28.158Z,23.39
2023-04-24T15:31:55.317Z,23.63
2023-04-24T15:34:22.419Z,22.92
2023-04-24T15:36:49.886Z,22.64
2023-04-24T15:39:26.879Z,22.19
2023-04-24T15:41:57.771Z,22.31
2023-04-24T15:44:27.198Z,22.66
2023-04-24T15:46:54.439Z,22.80
2023-04-24T15:49:22.169Z,22.46
2023-04-24T15:51:49.174Z,21.68
2023-04-24T15:54:16.783Z,21.62
2023-04-24T15:56:45.316Z,21.94
2023-04-24T15:59:12.686Z,21.74
2023-04-24T16:01:40.486Z,21.83
2023-04-24T16:04:07.780Z,22.09
2023-04-24T16:06:35.388Z,21.58
2023-04-24T16:09:03.699Z,21.71
2023-04-24T16:11:32.711Z,22.05
2023-04-24T16:13:59.877Z,21.88
2023-04-24T16:16:27.879Z,21.83
2023-04-24T16:18:57.916Z,21.58
2023-04-24T16:21:28.220Z,21.14
2023-04-24T16:23:55.356Z,21.56
2023-04-24T16:26:23.665Z,21.39
2023-04-24T16:28:51.075Z,20.83
2023-04-24T16:31:18.475Z,21.27
2023-04-24T16:33:45.766Z,20.81
2023-04-24T16:36:13.345Z,21.26
2023-04-24T16:38:40.675Z,21.39
2023-04-24T16:41:07.752Z,21.16
2023-04-24T16:43:35.977Z,21.36
2023-04-24T16:46:03.328Z,21.36
2023-04-24T16:48:33.198Z,20.77
2023-04-24T16:51:00.376Z,21.00
2023-04-24T16:53:27.645Z,21.01
2023-04-24T16:55:54.778Z,20.65
2023-04-24T16:58:21.795Z,20.97
2023-04-24T17:00:48.940Z,20.46
2023-04-24T17:03:16.156Z,19.93
2023-04-24T17:05:44.060Z,19.79
2023-04-24T17:08:11.097Z,20.19
2023-04-24T17:10:38.228Z,20.08
2023-04-24T17:13:05.612Z,20.00
2023-04-24T17:15:32.749Z,20.07
2023-04-24T17:18:00.339Z,19.51
2023-04-24T17:20:29.768Z,19.19
2023-04-24T17:22:57.900Z,19.01
2023-04-24T17:25:25.078Z,19.45
2023-04-24T17:27:53.968Z,19.17
2023-04-24T17:30:21.263Z,19.43
2023-04-24T17:32:48.438Z,19.21
2023-04-24T17:35:33.511Z,18.74
2023-04-24T17:38:00.698Z,18.51
2023-04-24T17:40:30.497Z,19.02
2023-04-24T17:42:57.483Z,18.59
2023-04-24T17:45:24.680Z,18.54
2023-04-24T17:47:52.088Z,18.95
2023-04-24T17:50:19.274Z,19.17
2023-04-24T17:52:46.357Z,18.65
2023-04-24T17:55:13.692Z,18.95
2023-04-24T17:57:41.508Z,18.44
2023-04-24T18:00:09.616Z,18.66
2023-04-24T18:02:36.865Z,18.11
2023-04-24T18:05:04.346Z,17.78
2023-04-24T18:07:31.385Z,17.89
2023-04-24T18:09:58.719Z,18.14
2023-04-24T18:12:26.065Z,17.71
2023-04-24T18:15:02.710Z,17.85
2023-04-24T18:17:39.896Z,18.17
2023-04-24T18:20:07.990Z,17.72
2023-04-24T18:22:35.257Z,17.58
2023-04-24T18:25:02.414Z,17.50
2023-04-24T18:27:31.816Z,17.75
2023-04-24T18:30:00.786Z,17.63
2023-04-24T18:32:27.944Z,17.36
2023-04-24T18:34:56.687Z,17.27
2023-04-24T18:37:23.920Z,17.06
2023-04-24T18:39:51.048Z,15.58
2023-04-24T18:42:18.549Z,17.00
2023-04-24T18:44:45.793Z,16.37
2023-04-24T18:47:13.059Z,16.09
2023-04-24T18:49:40.270Z,16.57
2023-04-24T18:52:07.332Z,16.25
2023-04-24T18:54:34.899Z,16.42
2023-04-24T18:57:01.932Z,16.67
2023-04-24T18:59:29.075Z,15.04
2023-04-24T19:01:57.217Z,16.00
2023-04-24T19:04:24.335Z,15.89
2023-04-24T19:06:51.440Z,15.16
2023-04-24T19:09:18.488Z,15.40
2023-04-24T19:11:45.671Z,15.87
2023-04-24T19:14:13.495Z,14.53
2023-04-24T19:16:41.516Z,14.92
2023-04-24T19:19:08.790Z,15.81
2023-04-24T19:21:36.037Z,15.50
2023-04-24T19:24:03.634Z,15.62
2023-04-24T19:26:31.465Z,15.50
2023-04-24T19:28:59.071Z,15.74
2023-04-24T19:31:26.648Z,15.03
2023-04-24T19:33:54.216Z,14.59
2023-04-24T19:36:21.533Z,13.98
2023-04-24T19:38:50.636Z,14.64
2023-04-24T19:41:18.098Z,15.00
2023-04-24T19:43:47.142Z,15.35
2023-04-24T19:46:15.462Z,15.23
2023-04-24T19:48:42.531Z,15.64
2023-04-24T19:51:09.743Z,15.03
2023-04-24T19:53:36.812Z,14.96
2023-04-24T19:56:03.852Z,15.41
2023-04-24T19:58:31.075Z,15.48
2023-04-24T20:00:58.463Z,15.31
2023-04-24T20:03:32.876Z,15.12
2023-04-24T20:06:01.497Z,14.47
2023-04-24T20:08:28.957Z,14.59
2023-04-24T20:10:57.869Z,15.13
2023-04-24T20:13:28.347Z,15.50
2023-04-24T20:15:55.535Z,14.97
2023-04-24T20:18:25.734Z,15.29
2023-04-24T20:20:56.847Z,15.43
2023-04-24T20:23:23.929Z,15.53
2023-04-24T20:25:57.672Z,15.42
2023-04-24T20:28:27.248Z,15.40
2023-04-24T20:30:54.816Z,15.50
2023-04-24T20:33:22.533Z,15.08
2023-04-24T20:35:52.267Z,14.82
2023-04-24T20:38:19.460Z,15.43
2023-04-24T20:40:57.681Z,15.20
2023-04-24T20:43:29.288Z,15.55
2023-04-24T20:45:58.137Z,15.02
2023-04-24T20:48:29.017Z,14.39
2023-04-24T20:50:56.511Z,14.61
2023-04-24T20:53:25.821Z,14.90
2023-04-24T20:55:53.340Z,15.25
2023-04-24T20:58:23.813Z,15.38
2023-04-24T21:00:52.254Z,15.23
2023-04-24T21:03:20.201Z,14.28
2023-04-24T21:05:47.744Z,14.57
2023-04-24T21:08:15.031Z,14.62
2023-04-24T21:10:42.639Z,14.73
2023-04-24T21:13:10.043Z,14.28
2023-04-24T21:15:37.492Z,14.95
2023-04-24T21:18:05.589Z,14.26
2023-04-24T21:20:32.963Z,14.33
2023-04-24T21:23:00.190Z,14.69
2023-04-24T21:25:28.032Z,15.11
2023-04-24T21:27:55.975Z,15.15
2023-04-24T21:30:23.200Z,14.93
2023-04-24T21:32:52.038Z,15.06
2023-04-24T21:35:19.396Z,14.69
2023-04-24T21:37:47.001Z,14.61
2023-04-24T21:40:15.931Z,14.58
2023-04-24T21:42:43.446Z,14.76
2023-04-24T21:45:13.733Z,14.40
2023-04-24T21:47:40.891Z,14.62
2023-04-24T21:50:09.262Z,14.41
2023-04-24T21:52:36.381Z,14.52
2023-04-24T21:55:03.627Z,14.47
2023-04-24T21:57:30.798Z,14.29
2023-04-24T21:59:57.925Z,14.32
2023-04-24T22:02:25.134Z,14.18
2023-04-24T22:04:52.853Z,14.41
2023-04-24T22:07:20.061Z,14.55
2023-04-24T22:09:47.113Z,13.73
2023-04-24T22:12:14.157Z,14.17
2023-04-24T22:14:41.202Z,14.44
2023-04-24T22:17:09.537Z,14.51
2023-04-24T22:19:36.581Z,14.23
2023-04-24T22:22:03.862Z,14.48
2023-04-24T22:24:31.626Z,14.33
2023-04-24T22:26:58.631Z,14.44
2023-04-24T22:29:26.291Z,14.57
2023-04-24T22:31:56.353Z,14.56
2023-04-24T22:34:23.458Z,14.69
2023-04-24T22:36:50.611Z,14.52
2023-04-24T22:39:20.225Z,14.42
2023-04-24T22:41:47.525Z,14.59
2023-04-24T22:44:14.724Z,14.56
2023-04-24T22:46:41.804Z,14.50
2023-04-24T22:49:09.120Z,13.91
2023-04-24T22:51:36.185Z,14.72
2023-04-24T22:54:05.051Z,14.39
2023-04-24T22:56:33.558Z,14.59
2023-04-24T22:59:00.905Z,14.83
2023-04-24T23:01:28.063Z,14.80
2023-04-24T23:03:55.446Z,14.51
2023-04-24T23:06:22.651Z,14.36
2023-04-24T23:08:49.821Z,14.30
2023-04-24T23:11:16.882Z,14.42
2023-04-24T23:13:44.440Z,14.61
2023-04-24T23:16:11.467Z,14.49
2023-04-24T23:18:38.469Z,14.37
2023-04-24T23:21:06.038Z,14.38
2023-04-24T23:23:33.244Z,14.09
2023-04-24T23:26:02.877Z,14.05
2023-04-24T23:28:29.867Z,14.15
2023-04-24T23:30:57.132Z,14.04
2023-04-24T23:33:24.216Z,13.91
2023-04-24T23:35:52.548Z,13.99
2023-04-24T23:38:19.677Z,14.36
2023-04-24T23:40:46.785Z,14.12
2023-04-24T23:43:13.825Z,13.66
2023-04-24T23:45:41.033Z,14.12
2023-04-24T23:48:08.150Z,13.88
2023-04-24T23:50:35.376Z,14.12
2023-04-24T23:53:02.675Z,14.11
2023-04-24T23:55:31.271Z,14.25
2023-04-24T23:57:58.682Z,12.97
